sensor_id;sensor_type;location;lat;lon;timestamp;temperature;humidity
45868;DHT22;31582;45.490;7.860;2023-02-28T16:00:18;7.30;67.40
45868;DHT22;31582;45.490;7.860;2023-02-28T16:02:45;7.20;66.50
45868;DHT22;31582;45.490;7.860;2023-02-28T16:05:28;7.30;65.50
45868;DHT22;31582;45.490;7.860;2023-02-28T16:08:17;7.20;66.50
45868;DHT22;31582;45.490;7.860;2023-02-28T16:10:45;7.20;66.70
45868;DHT22;31582;45.490;7.860;2023-02-28T16:13:13;7.20;65.80
45868;DHT22;31582;45.490;7.860;2023-02-28T16:15:43;7.20;66.70
45868;DHT22;31582;45.490;7.860;2023-02-28T16:18:12;7.00;66.80
45868;DHT22;31582;45.490;7.860;2023-02-28T16:20:40;6.90;68.60
45868;DHT22;31582;45.490;7.860;2023-02-28T16:23:07;7.00;69.50
45868;DHT22;31582;45.490;7.860;2023-02-28T16:25:37;7.10;67.70
45868;DHT22;31582;45.490;7.860;2023-02-28T16:28:11;7.10;66.20
45868;DHT22;31582;45.490;7.860;2023-02-28T16:30:39;7.20;66.00
45868;DHT22;31582;45.490;7.860;2023-02-28T16:33:07;7.20;66.10
45868;DHT22;31582;45.490;7.860;2023-02-28T16:35:34;7.20;66.90
45868;DHT22;31582;45.490;7.860;2023-02-28T16:38:01;6.80;69.90
45868;DHT22;31582;45.490;7.860;2023-02-28T16:40:34;6.70;71.20
45868;DHT22;31582;45.490;7.860;2023-02-28T16:43:10;6.80;70.00
45868;DHT22;31582;45.490;7.860;2023-02-28T16:45:40;7.00;69.40
45868;DHT22;31582;45.490;7.860;2023-02-28T16:48:12;6.90;70.50
45868;DHT22;31582;45.490;7.860;2023-02-28T16:50:40;6.60;72.50
45868;DHT22;31582;45.490;7.860;2023-02-28T16:53:07;6.60;72.80
45868;DHT22;31582;45.490;7.860;2023-02-28T16:55:35;6.80;72.70
45868;DHT22;31582;45.490;7.860;2023-02-28T16:58:03;6.40;72.40
45868;DHT22;31582;45.490;7.860;2023-02-28T17:00:31;6.60;74.90
45868;DHT22;31582;45.490;7.860;2023-02-28T17:02:58;6.60;71.90
45868;DHT22;31582;45.490;7.860;2023-02-28T17:05:36;6.60;73.20
45868;DHT22;31582;45.490;7.860;2023-02-28T17:08:05;6.60;74.80
45868;DHT22;31582;45.490;7.860;2023-02-28T17:10:32;6.60;74.90
45868;DHT22;31582;45.490;7.860;2023-02-28T17:12:59;6.50;76.10
45868;DHT22;31582;45.490;7.860;2023-02-28T17:15:40;6.40;77.30
45868;DHT22;31582;45.490;7.860;2023-02-28T17:18:13;6.40;77.40
45868;DHT22;31582;45.490;7.860;2023-02-28T17:20:41;6.30;77.70
45868;DHT22;31582;45.490;7.860;2023-02-28T17:23:09;6.30;77.90
45868;DHT22;31582;45.490;7.860;2023-02-28T17:25:36;5.80;83.00
45868;DHT22;31582;45.490;7.860;2023-02-28T17:28:03;5.60;86.80
45868;DHT22;31582;45.490;7.860;2023-02-28T17:30:33;5.60;86.20
45868;DHT22;31582;45.490;7.860;2023-02-28T17:33:01;5.70;85.30
45868;DHT22;31582;45.490;7.860;2023-02-28T17:35:28;5.30;91.50
45868;DHT22;31582;45.490;7.860;2023-02-28T17:37:55;4.80;95.90
45868;DHT22;31582;45.490;7.860;2023-02-28T17:40:23;4.60;97.00
45868;DHT22;31582;45.490;7.860;2023-02-28T17:42:50;4.60;96.40
45868;DHT22;31582;45.490;7.860;2023-02-28T17:45:19;5.00;94.70
45868;DHT22;31582;45.490;7.860;2023-02-28T17:47:48;5.20;93.50
45868;DHT22;31582;45.490;7.860;2023-02-28T17:50:19;4.90;95.20
45868;DHT22;31582;45.490;7.860;2023-02-28T17:52:46;4.90;95.50
45868;DHT22;31582;45.490;7.860;2023-02-28T17:55:14;5.00;96.30
45868;DHT22;31582;45.490;7.860;2023-02-28T17:57:41;4.80;97.70
45868;DHT22;31582;45.490;7.860;2023-02-28T18:00:12;4.90;97.60
45868;DHT22;31582;45.490;7.860;2023-02-28T18:02:40;5.10;96.30
45868;DHT22;31582;45.490;7.860;2023-02-28T18:05:07;5.10;95.90
45868;DHT22;31582;45.490;7.860;2023-02-28T18:07:36;5.10;94.00
45868;DHT22;31582;45.490;7.860;2023-02-28T18:10:06;5.10;94.40
45868;DHT22;31582;45.490;7.860;2023-02-28T18:12:34;4.80;95.80
45868;DHT22;31582;45.490;7.860;2023-02-28T18:15:00;4.70;96.80
45868;DHT22;31582;45.490;7.860;2023-02-28T18:17:27;4.50;98.80
45868;DHT22;31582;45.490;7.860;2023-02-28T18:19:57;4.30;99.90
45868;DHT22;31582;45.490;7.860;2023-02-28T18:22:25;4.20;99.80
45868;DHT22;31582;45.490;7.860;2023-02-28T18:24:54;4.30;99.30
45868;DHT22;31582;45.490;7.860;2023-02-28T18:27:21;4.50;95.90
45868;DHT22;31582;45.490;7.860;2023-02-28T18:29:48;4.50;97.00
45868;DHT22;31582;45.490;7.860;2023-02-28T18:32:18;4.20;98.20
45868;DHT22;31582;45.490;7.860;2023-02-28T18:34:46;4.30;99.50
45868;DHT22;31582;45.490;7.860;2023-02-28T18:37:14;4.30;99.10
45868;DHT22;31582;45.490;7.860;2023-02-28T18:39:41;3.80;99.90
45868;DHT22;31582;45.490;7.860;2023-02-28T18:42:08;3.60;99.90
45868;DHT22;31582;45.490;7.860;2023-02-28T18:44:36;3.50;99.90
45868;DHT22;31582;45.490;7.860;2023-02-28T18:47:03;3.50;99.90
45868;DHT22;31582;45.490;7.860;2023-02-28T18:49:31;3.60;99.90
45868;DHT22;31582;45.490;7.860;2023-02-28T18:52:01;3.90;99.90
45868;DHT22;31582;45.490;7.860;2023-02-28T18:54:28;4.00;99.90
45868;DHT22;31582;45.490;7.860;2023-02-28T18:56:55;3.90;99.90
45868;DHT22;31582;45.490;7.860;2023-02-28T18:59:22;3.70;99.90
45868;DHT22;31582;45.490;7.860;2023-02-28T19:01:49;3.80;99.90
45868;DHT22;31582;45.490;7.860;2023-02-28T19:04:16;3.90;99.90
45868;DHT22;31582;45.490;7.860;2023-02-28T19:06:43;3.80;99.90
45868;DHT22;31582;45.490;7.860;2023-02-28T19:09:10;3.70;99.90
45868;DHT22;31582;45.490;7.860;2023-02-28T19:11:39;3.30;99.90
45868;DHT22;31582;45.490;7.860;2023-02-28T19:14:10;3.40;99.90
45868;DHT22;31582;45.490;7.860;2023-02-28T19:16:37;3.50;99.90
45868;DHT22;31582;45.490;7.860;2023-02-28T19:19:04;3.50;99.90
45868;DHT22;31582;45.490;7.860;2023-02-28T19:21:32;3.30;99.90
45868;DHT22;31582;45.490;7.860;2023-02-28T19:24:03;3.60;99.90
45868;DHT22;31582;45.490;7.860;2023-02-28T19:26:32;3.40;99.90
45868;DHT22;31582;45.490;7.860;2023-02-28T19:29:02;3.20;99.90
45868;DHT22;31582;45.490;7.860;2023-02-28T19:31:30;3.50;99.90
45868;DHT22;31582;45.490;7.860;2023-02-28T19:33:58;3.50;99.90
45868;DHT22;31582;45.490;7.860;2023-02-28T19:36:26;3.20;99.90
45868;DHT22;31582;45.490;7.860;2023-02-28T19:38:57;3.40;99.90
45868;DHT22;31582;45.490;7.860;2023-02-28T19:41:29;3.30;99.90
45868;DHT22;31582;45.490;7.860;2023-02-28T19:43:59;2.80;99.90
45868;DHT22;31582;45.490;7.860;2023-02-28T19:46:26;3.00;99.90
45868;DHT22;31582;45.490;7.860;2023-02-28T19:48:54;3.20;99.90
45868;DHT22;31582;45.490;7.860;2023-02-28T19:51:22;3.20;99.90
45868;DHT22;31582;45.490;7.860;2023-02-28T19:53:52;3.20;99.90
45868;DHT22;31582;45.490;7.860;2023-02-28T19:56:20;2.80;99.90
45868;DHT22;31582;45.490;7.860;2023-02-28T19:58:47;3.00;99.90
45868;DHT22;31582;45.490;7.860;2023-02-28T20:01:16;3.10;99.90
45868;DHT22;31582;45.490;7.860;2023-02-28T20:03:48;2.90;99.90
45868;DHT22;31582;45.490;7.860;2023-02-28T20:06:17;3.00;99.90
45868;DHT22;31582;45.490;7.860;2023-02-28T20:08:44;3.00;99.90
45868;DHT22;31582;45.490;7.860;2023-02-28T20:11:13;3.10;99.90
45868;DHT22;31582;45.490;7.860;2023-02-28T20:13:42;3.00;99.90
45868;DHT22;31582;45.490;7.860;2023-02-28T20:16:11;2.70;99.90
45868;DHT22;31582;45.490;7.860;2023-02-28T20:18:40;2.60;99.90
45868;DHT22;31582;45.490;7.860;2023-02-28T20:21:12;2.40;99.90
45868;DHT22;31582;45.490;7.860;2023-02-28T20:23:41;2.10;99.90
45868;DHT22;31582;45.490;7.860;2023-02-28T20:26:10;2.10;99.90
45868;DHT22;31582;45.490;7.860;2023-02-28T20:28:38;1.90;99.90
45868;DHT22;31582;45.490;7.860;2023-02-28T20:31:19;2.00;99.90
45868;DHT22;31582;45.490;7.860;2023-02-28T20:33:47;1.90;99.90
45868;DHT22;31582;45.490;7.860;2023-02-28T20:36:16;2.20;99.90
45868;DHT22;31582;45.490;7.860;2023-02-28T20:38:46;2.40;99.90
45868;DHT22;31582;45.490;7.860;2023-02-28T20:41:16;2.40;99.90
45868;DHT22;31582;45.490;7.860;2023-02-28T20:43:44;2.20;99.90
45868;DHT22;31582;45.490;7.860;2023-02-28T20:46:12;2.10;99.90
45868;DHT22;31582;45.490;7.860;2023-02-28T20:48:41;2.10;99.90
45868;DHT22;31582;45.490;7.860;2023-02-28T20:51:09;2.10;99.90
45868;DHT22;31582;45.490;7.860;2023-02-28T20:53:36;2.20;99.90
45868;DHT22;31582;45.490;7.860;2023-02-28T20:56:15;2.30;99.90
45868;DHT22;31582;45.490;7.860;2023-02-28T20:58:48;2.10;99.90
45868;DHT22;31582;45.490;7.860;2023-02-28T21:01:19;1.90;99.90
45868;DHT22;31582;45.490;7.860;2023-02-28T21:06:21;2.20;99.90
45868;DHT22;31582;45.490;7.860;2023-02-28T21:08:50;2.10;99.90
45868;DHT22;31582;45.490;7.860;2023-02-28T21:11:23;1.50;99.90
45868;DHT22;31582;45.490;7.860;2023-02-28T21:13:52;1.20;99.90
45868;DHT22;31582;45.490;7.860;2023-02-28T21:16:22;1.30;99.90
45868;DHT22;31582;45.490;7.860;2023-02-28T21:18:51;1.60;99.90
45868;DHT22;31582;45.490;7.860;2023-02-28T21:21:22;1.60;99.90
45868;DHT22;31582;45.490;7.860;2023-02-28T21:23:51;1.40;99.90
45868;DHT22;31582;45.490;7.860;2023-02-28T21:26:21;1.50;99.90
45868;DHT22;31582;45.490;7.860;2023-02-28T21:28:58;1.30;99.90
45868;DHT22;31582;45.490;7.860;2023-02-28T21:31:27;1.00;99.90
45868;DHT22;31582;45.490;7.860;2023-02-28T21:33:55;1.10;99.90
45868;DHT22;31582;45.490;7.860;2023-02-28T21:36:25;1.20;99.90
45868;DHT22;31582;45.490;7.860;2023-02-28T21:38:58;1.40;99.90
45868;DHT22;31582;45.490;7.860;2023-02-28T21:41:28;1.70;99.90
45868;DHT22;31582;45.490;7.860;2023-02-28T21:43:56;1.50;99.90
45868;DHT22;31582;45.490;7.860;2023-02-28T21:46:25;1.50;99.90
45868;DHT22;31582;45.490;7.860;2023-02-28T21:48:54;1.30;99.90
45868;DHT22;31582;45.490;7.860;2023-02-28T21:51:27;1.20;99.90
45868;DHT22;31582;45.490;7.860;2023-02-28T21:53:58;1.30;99.90
45868;DHT22;31582;45.490;7.860;2023-02-28T21:56:28;1.40;99.90
45868;DHT22;31582;45.490;7.860;2023-02-28T21:58:56;1.10;99.90
45868;DHT22;31582;45.490;7.860;2023-02-28T22:01:38;1.00;99.90
45868;DHT22;31582;45.490;7.860;2023-02-28T22:04:07;1.00;99.90
45868;DHT22;31582;45.490;7.860;2023-02-28T22:06:38;1.10;99.90
45868;DHT22;31582;45.490;7.860;2023-02-28T22:09:08;1.20;99.90
45868;DHT22;31582;45.490;7.860;2023-02-28T22:11:36;1.00;99.90
45868;DHT22;31582;45.490;7.860;2023-02-28T22:14:05;1.10;99.90
45868;DHT22;31582;45.490;7.860;2023-02-28T22:16:32;1.20;99.90
45868;DHT22;31582;45.490;7.860;2023-02-28T22:19:18;0.70;99.90
45868;DHT22;31582;45.490;7.860;2023-02-28T22:21:45;0.70;99.90
45868;DHT22;31582;45.490;7.860;2023-02-28T22:24:13;0.90;99.90
45868;DHT22;31582;45.490;7.860;2023-02-28T22:26:41;0.70;99.90
45868;DHT22;31582;45.490;7.860;2023-02-28T22:29:08;0.80;99.90
45868;DHT22;31582;45.490;7.860;2023-02-28T22:31:35;0.80;99.90
45868;DHT22;31582;45.490;7.860;2023-02-28T22:34:05;0.60;99.90
45868;DHT22;31582;45.490;7.860;2023-02-28T22:36:33;0.30;99.90
45868;DHT22;31582;45.490;7.860;2023-02-28T22:39:04;0.50;99.90
45868;DHT22;31582;45.490;7.860;2023-02-28T22:41:31;0.40;99.90
45868;DHT22;31582;45.490;7.860;2023-02-28T22:44:00;0.50;99.90
45868;DHT22;31582;45.490;7.860;2023-02-28T22:46:30;0.60;99.90
45868;DHT22;31582;45.490;7.860;2023-02-28T22:48:58;0.70;99.90
45868;DHT22;31582;45.490;7.860;2023-02-28T22:51:27;0.60;99.90
45868;DHT22;31582;45.490;7.860;2023-02-28T22:53:55;0.50;99.90
45868;DHT22;31582;45.490;7.860;2023-02-28T22:56:24;0.60;99.90
45868;DHT22;31582;45.490;7.860;2023-02-28T22:58:52;0.10;99.90
45868;DHT22;31582;45.490;7.860;2023-02-28T23:01:22;0.20;99.90
45868;DHT22;31582;45.490;7.860;2023-02-28T23:03:50;0.40;99.90
45868;DHT22;31582;45.490;7.860;2023-02-28T23:06:21;0.40;99.90
45868;DHT22;31582;45.490;7.860;2023-02-28T23:08:49;0.30;99.90
45868;DHT22;31582;45.490;7.860;2023-02-28T23:11:20;0.10;99.90
45868;DHT22;31582;45.490;7.860;2023-02-28T23:13:48;0.20;99.90
45868;DHT22;31582;45.490;7.860;2023-02-28T23:19:11;0.20;99.90
45868;DHT22;31582;45.490;7.860;2023-02-28T23:21:39;0.50;99.90
45868;DHT22;31582;45.490;7.860;2023-02-28T23:24:09;0.70;99.90
45868;DHT22;31582;45.490;7.860;2023-02-28T23:26:42;0.50;99.90
45868;DHT22;31582;45.490;7.860;2023-02-28T23:29:11;0.60;99.90
45868;DHT22;31582;45.490;7.860;2023-02-28T23:31:38;0.70;99.90
45868;DHT22;31582;45.490;7.860;2023-02-28T23:34:05;0.70;99.90
45868;DHT22;31582;45.490;7.860;2023-02-28T23:36:33;0.70;99.90
45868;DHT22;31582;45.490;7.860;2023-02-28T23:39:00;0.50;99.90
45868;DHT22;31582;45.490;7.860;2023-02-28T23:41:27;0.30;99.90
45868;DHT22;31582;45.490;7.860;2023-02-28T23:43:54;0.30;99.90
45868;DHT22;31582;45.490;7.860;2023-02-28T23:46:21;0.30;99.90
45868;DHT22;31582;45.490;7.860;2023-02-28T23:48:49;0.40;99.90
45868;DHT22;31582;45.490;7.860;2023-02-28T23:51:18;0.20;99.90
45868;DHT22;31582;45.490;7.860;2023-02-28T23:53:47;0.30;99.90
45868;DHT22;31582;45.490;7.860;2023-02-28T23:56:18;0.60;99.90
45868;DHT22;31582;45.490;7.860;2023-02-28T23:58:46;0.90;99.90
